Time;durP1;ratioP1;P1;durP2;ratioP2;P2;SDS_P1;SDS_P2;PMS_P1;PMS_P2;Temp;Humidity;BMP_temperature;BMP_pressure;BME280_temperature;BME280_humidity;BME280_pressure;Samples;Min_cycle;Max_cycle;Signal;HPM_P1;HPM_P2
2024/03/12 00:02:00;;;;;;;;;;;4.70;1.00;;;;;;5056811;28;19909;-75
2024/03/12 00:04:28;;;;;;;;;;;4.70;1.00;;;;;;5053602;28;19913;-76
2024/03/12 00:06:54;;;;;;;;;;;4.70;1.00;;;;;;5055756;28;19916;-76
2024/03/12 00:09:22;;;;;;;;;;;4.60;1.00;;;;;;5053838;28;19916;-75
2024/03/12 00:11:48;;;;;;;;;;;4.60;1.00;;;;;;5056009;28;19920;-76
2024/03/12 00:14:19;;;;;;;;;;;4.60;1.00;;;;;;5056174;28;19909;-75
2024/03/12 00:16:45;;;;;;;;;;;4.60;1.00;;;;;;5056903;28;19916;-75
2024/03/12 00:19:12;;;;;;;;;;;4.60;1.00;;;;;;5056341;28;19921;-75
2024/03/12 00:21:48;;;;;;;;;;;4.50;1.00;;;;;;5056650;28;19915;-75
2024/03/12 00:24:24;;;;;;;;;;;4.50;1.00;;;;;;5056413;28;19909;-75
2024/03/12 00:26:49;;;;;;;;;;;4.50;1.00;;;;;;5056619;28;19913;-76
2024/03/12 00:29:16;;;;;;;;;;;4.40;1.00;;;;;;5035209;28;20004;-76
2024/03/12 00:31:42;;;;;;;;;;;4.50;1.00;;;;;;5045292;28;20416;-75
2024/03/12 00:34:10;;;;;;;;;;;4.40;1.00;;;;;;5046729;28;19956;-75
2024/03/12 00:36:43;;;;;;;;;;;4.40;1.00;;;;;;5056526;28;19920;-76
2024/03/12 00:39:12;;;;;;;;;;;4.40;1.00;;;;;;5055754;28;20275;-75
2024/03/12 00:41:38;;;;;;;;;;;4.30;1.00;;;;;;5056526;28;19920;-76
2024/03/12 00:44:06;;;;;;;;;;;4.30;1.00;;;;;;5055962;28;19917;-75
2024/03/12 00:46:31;;;;;;;;;;;4.30;1.00;;;;;;5055982;28;20004;-75
2024/03/12 00:49:00;;;;;;;;;;;4.30;1.00;;;;;;5055880;28;19952;-75
2024/03/12 00:51:26;;;;;;;;;;;4.20;1.00;;;;;;5055866;28;19952;-76
2024/03/12 00:53:52;;;;;;;;;;;4.20;1.00;;;;;;5038076;28;20304;-75
2024/03/12 00:56:17;;;;;;;;;;;4.20;1.00;;;;;;5040460;28;19920;-75
2024/03/12 00:58:48;;;;;;;;;;;4.20;1.00;;;;;;5056129;28;19995;-75
2024/03/12 01:01:20;;;;;;;;;;;4.20;1.00;;;;;;5055736;28;19956;-75
2024/03/12 01:03:48;;;;;;;;;;;4.30;1.00;;;;;;5037598;28;19915;-76
2024/03/12 01:06:25;;;;;;;;;;;4.20;1.00;;;;;;5055814;28;20292;-75
2024/03/12 01:08:51;;;;;;;;;;;4.20;1.00;;;;;;5055325;28;19909;-75
2024/03/12 01:11:16;;;;;;;;;;;4.20;1.00;;;;;;5052588;28;19958;-75
2024/03/12 01:13:44;;;;;;;;;;;4.20;1.00;;;;;;5055046;28;19913;-75
2024/03/12 01:16:09;;;;;;;;;;;4.20;1.00;;;;;;5046621;28;19913;-75
2024/03/12 01:18:36;;;;;;;;;;;4.20;1.00;;;;;;5035288;28;19921;-75
2024/03/12 01:21:02;;;;;;;;;;;4.30;1.00;;;;;;5049936;28;19913;-75
2024/03/12 01:23:28;;;;;;;;;;;4.30;1.00;;;;;;5055475;28;19916;-75
2024/03/12 01:25:54;;;;;;;;;;;4.30;1.00;;;;;;5046349;28;19910;-75
2024/03/12 01:28:24;;;;;;;;;;;4.30;1.00;;;;;;5051070;28;19935;-78
2024/03/12 01:31:12;;;;;;;;;;;4.40;1.00;;;;;;5055110;28;19909;-78
2024/03/12 01:33:59;;;;;;;;;;;4.60;1.00;;;;;;5054756;28;19920;-78
2024/03/12 01:36:36;;;;;;;;;;;4.60;1.50;;;;;;5041557;28;19928;-80
2024/03/12 01:39:08;;;;;;;;;;;4.70;2.70;;;;;;5054535;28;20007;-78
2024/03/12 01:42:02;;;;;;;;;;;4.90;2.40;;;;;;5033035;28;19917;-78
2024/03/12 01:44:30;;;;;;;;;;;5.00;1.00;;;;;;5050266;28;20275;-78
2024/03/12 01:47:13;;;;;;;;;;;5.10;3.30;;;;;;5054685;28;19916;-80
2024/03/12 01:52:50;;;;;;;;;;;5.20;1.40;;;;;;5048760;28;19915;-78
2024/03/12 01:55:18;;;;;;;;;;;5.20;1.00;;;;;;5045197;28;19913;-78
2024/03/12 01:57:48;;;;;;;;;;;5.10;1.00;;;;;;5054609;28;19976;-76
2024/03/12 02:00:15;;;;;;;;;;;5.10;1.00;;;;;;5054265;28;19917;-75
2024/03/12 02:02:42;;;;;;;;;;;5.00;1.00;;;;;;5051948;28;19995;-75
2024/03/12 02:05:10;;;;;;;;;;;5.10;1.00;;;;;;5054098;28;19916;-75
2024/03/12 02:07:46;;;;;;;;;;;4.90;1.00;;;;;;5053700;28;19909;-76
2024/03/12 02:10:13;;;;;;;;;;;4.90;1.00;;;;;;5047389;28;19917;-75
2024/03/12 02:15:42;;;;;;;;;;;4.80;1.00;;;;;;5054258;28;19969;-80
2024/03/12 02:18:18;;;;;;;;;;;4.70;1.00;;;;;;5054581;28;19955;-78
2024/03/12 02:23:46;;;;;;;;;;;4.60;1.00;;;;;;5054045;28;19920;-78
2024/03/12 02:26:12;;;;;;;;;;;4.50;1.00;;;;;;5053616;28;19908;-78
2024/03/12 02:28:54;;;;;;;;;;;4.40;1.00;;;;;;5046281;28;19988;-79
2024/03/12 02:31:24;;;;;;;;;;;4.40;1.00;;;;;;5053355;28;19913;-78
2024/03/12 02:36:52;;;;;;;;;;;4.40;1.00;;;;;;5053539;28;20023;-78
2024/03/12 02:42:30;;;;;;;;;;;4.50;1.00;;;;;;5050591;28;20004;-78
2024/03/12 02:44:56;;;;;;;;;;;4.50;1.10;;;;;;5053126;28;19915;-75
2024/03/12 02:47:36;;;;;;;;;;;4.60;2.40;;;;;;5053958;28;19915;-75
2024/03/12 02:50:02;;;;;;;;;;;4.80;4.10;;;;;;5053909;28;19923;-75
2024/03/12 02:52:29;;;;;;;;;;;4.90;5.40;;;;;;5053099;28;20390;-75
2024/03/12 02:54:55;;;;;;;;;;;5.00;7.00;;;;;;5053836;28;19951;-76
2024/03/12 02:57:21;;;;;;;;;;;5.20;6.80;;;;;;5052875;28;19948;-75
2024/03/12 02:59:48;;;;;;;;;;;5.20;4.70;;;;;;5053528;28;19919;-75
2024/03/12 03:02:14;;;;;;;;;;;5.30;7.20;;;;;;5048394;28;19909;-76
2024/03/12 03:04:48;;;;;;;;;;;5.40;8.00;;;;;;5053912;28;20372;-75
2024/03/12 03:07:18;;;;;;;;;;;5.50;8.10;;;;;;5052982;28;19913;-75
2024/03/12 03:09:44;;;;;;;;;;;5.60;4.30;;;;;;5042605;28;19913;-75
2024/03/12 03:12:09;;;;;;;;;;;5.70;7.20;;;;;;5049736;28;19917;-75
2024/03/12 03:14:35;;;;;;;;;;;5.80;4.10;;;;;;5054303;28;19971;-78
2024/03/12 03:20:05;;;;;;;;;;;6.00;4.50;;;;;;5053252;28;19931;-78
2024/03/12 03:23:00;;;;;;;;;;;6.20;1.00;;;;;;5053399;28;19919;-78
2024/03/12 03:25:30;;;;;;;;;;;6.20;1.00;;;;;;5041527;28;19919;-79
2024/03/12 03:28:00;;;;;;;;;;;6.30;1.00;;;;;;5053244;28;19936;-76
2024/03/12 03:30:25;;;;;;;;;;;6.40;1.00;;;;;;5043351;28;20022;-76
2024/03/12 03:32:54;;;;;;;;;;;6.40;1.00;;;;;;5041885;28;20420;-75
2024/03/12 03:35:24;;;;;;;;;;;6.50;1.00;;;;;;5044407;28;20001;-75
2024/03/12 03:37:54;;;;;;;;;;;6.50;1.00;;;;;;5049842;28;19917;-75
2024/03/12 03:40:24;;;;;;;;;;;6.60;1.00;;;;;;5057034;28;19913;-76
2024/03/12 03:43:24;;;;;;;;;;;6.50;1.00;;;;;;5055129;28;19912;-75
2024/03/12 03:46:06;;;;;;;;;;;6.60;1.00;;;;;;5035198;28;19912;-79
2024/03/12 03:48:59;;;;;;;;;;;6.70;1.00;;;;;;5038948;28;19935;-79
2024/03/12 03:51:30;;;;;;;;;;;6.80;1.00;;;;;;5027713;28;19913;-79
2024/03/12 03:54:24;;;;;;;;;;;6.80;1.00;;;;;;5056165;28;20046;-79
2024/03/12 03:57:00;;;;;;;;;;;6.90;1.00;;;;;;5038914;28;19932;-79
2024/03/12 04:02:28;;;;;;;;;;;6.90;1.00;;;;;;5042594;28;20426;-78
2024/03/12 04:05:32;;;;;;;;;;;7.00;1.00;;;;;;5046138;28;19917;-79
2024/03/12 04:08:18;;;;;;;;;;;7.10;1.00;;;;;;5045965;28;19999;-79
2024/03/12 04:10:54;;;;;;;;;;;7.10;1.00;;;;;;5053958;28;19909;-79
2024/03/12 04:16:22;;;;;;;;;;;7.10;1.00;;;;;;5036295;28;20288;-78
2024/03/12 04:18:48;;;;;;;;;;;7.20;1.00;;;;;;5042804;28;19917;-78
2024/03/12 04:21:43;;;;;;;;;;;7.20;1.00;;;;;;5056263;28;19912;-79
2024/03/12 04:24:27;;;;;;;;;;;7.20;1.00;;;;;;5056003;28;19942;-78
2024/03/12 04:27:00;;;;;;;;;;;7.20;1.00;;;;;;5056001;28;19916;-78
2024/03/12 04:29:30;;;;;;;;;;;7.20;1.00;;;;;;5056327;28;19909;-78
2024/03/12 04:34:58;;;;;;;;;;;7.20;1.00;;;;;;5055343;28;19920;-79
2024/03/12 04:37:36;;;;;;;;;;;7.10;1.00;;;;;;5055922;28;19913;-79
2024/03/12 04:40:24;;;;;;;;;;;7.10;1.00;;;;;;5055774;28;19979;-79
2024/03/12 04:45:52;;;;;;;;;;;7.20;1.00;;;;;;5055635;28;19919;-75
2024/03/12 04:48:18;;;;;;;;;;;7.20;1.00;;;;;;5055973;28;19909;-76
2024/03/12 04:50:43;;;;;;;;;;;7.30;1.00;;;;;;5055929;28;19948;-76
2024/03/12 04:53:09;;;;;;;;;;;7.20;1.00;;;;;;5034132;28;19909;-75
2024/03/12 04:55:42;;;;;;;;;;;7.30;1.00;;;;;;5050189;28;19913;-75
2024/03/12 04:58:18;;;;;;;;;;;7.30;1.00;;;;;;5055764;28;19959;-75
2024/03/12 05:00:48;;;;;;;;;;;7.30;1.00;;;;;;5055715;28;19944;-78
2024/03/12 05:06:31;;;;;;;;;;;7.30;1.00;;;;;;5054938;28;20276;-79
2024/03/12 05:08:56;;;;;;;;;;;7.30;1.00;;;;;;5055511;28;19947;-79
2024/03/12 05:14:24;;;;;;;;;;;7.40;1.00;;;;;;5044272;28;19936;-78
2024/03/12 05:17:00;;;;;;;;;;;;;;;;;;5055144;28;20395;-79
2024/03/12 05:19:42;;;;;;;;;;;7.50;1.00;;;;;;5055147;28;20438;-78
2024/03/12 05:22:24;;;;;;;;;;;7.50;1.00;;;;;;5052967;28;19920;-79
2024/03/12 05:25:10;;;;;;;;;;;7.60;1.00;;;;;;5055111;28;19915;-79
2024/03/12 05:27:43;;;;;;;;;;;7.60;1.00;;;;;;5055060;28;20484;-78
2024/03/12 05:30:14;;;;;;;;;;;7.60;1.00;;;;;;5048495;28;19920;-79
2024/03/12 05:33:04;;;;;;;;;;;7.60;1.00;;;;;;5048791;28;19955;-79
2024/03/12 05:35:31;;;;;;;;;;;7.70;1.00;;;;;;5036588;28;19913;-79
2024/03/12 05:38:33;;;;;;;;;;;7.70;1.00;;;;;;5046069;28;20015;-78
2024/03/12 05:41:29;;;;;;;;;;;7.70;1.00;;;;;;5049897;28;19920;-78
2024/03/12 05:49:30;;;;;;;;;;;7.70;1.00;;;;;;5054483;28;19920;-77
2024/03/12 05:52:07;;;;;;;;;;;7.80;1.00;;;;;;5054365;28;19910;-78
2024/03/12 05:54:36;;;;;;;;;;;7.70;1.00;;;;;;5054552;28;19920;-77
2024/03/12 05:57:12;;;;;;;;;;;7.70;1.00;;;;;;5053672;28;19952;-77
2024/03/12 06:00:00;;;;;;;;;;;7.80;1.00;;;;;;5048423;28;19920;-77
2024/03/12 06:02:49;;;;;;;;;;;7.80;1.00;;;;;;5049315;28;19909;-77
2024/03/12 06:05:18;;;;;;;;;;;7.90;1.00;;;;;;5045897;28;19913;-77
2024/03/12 06:07:52;;;;;;;;;;;7.90;1.00;;;;;;5045135;28;19909;-77
2024/03/12 06:10:36;;;;;;;;;;;7.90;1.00;;;;;;5054312;28;19908;-77
2024/03/12 06:16:18;;;;;;;;;;;7.90;1.00;;;;;;5054512;28;20055;-77
2024/03/12 06:18:54;;;;;;;;;;;8.00;1.00;;;;;;5036017;28;20322;-77
2024/03/12 06:21:24;;;;;;;;;;;8.10;1.00;;;;;;5050706;28;19912;-77
2024/03/12 06:23:49;;;;;;;;;;;8.00;1.00;;;;;;5043880;28;19917;-78
2024/03/12 06:26:18;;;;;;;;;;;8.10;1.00;;;;;;5053915;28;20003;-78
2024/03/12 06:28:44;;;;;;;;;;;8.10;1.00;;;;;;5052256;28;19909;-78
2024/03/12 06:31:18;;;;;;;;;;;8.10;1.00;;;;;;5028924;28;19958;-77
2024/03/12 06:33:49;;;;;;;;;;;8.20;1.00;;;;;;5047411;28;20298;-77
2024/03/12 06:36:24;;;;;;;;;;;8.30;1.00;;;;;;5053351;28;19913;-77
2024/03/12 06:38:52;;;;;;;;;;;8.30;1.00;;;;;;5035442;28;19999;-78
2024/03/12 06:41:36;;;;;;;;;;;8.50;1.00;;;;;;5053901;28;19936;-79
2024/03/12 06:44:07;;;;;;;;;;;8.30;1.00;;;;;;5053689;28;20334;-78
2024/03/12 06:46:33;;;;;;;;;;;8.30;1.00;;;;;;5054092;28;19909;-78
2024/03/12 06:52:06;;;;;;;;;;;8.40;1.00;;;;;;5053693;28;20390;-79
2024/03/12 06:54:44;;;;;;;;;;;8.40;1.00;;;;;;5052620;28;20007;-77
2024/03/12 06:57:10;;;;;;;;;;;8.40;1.00;;;;;;5053636;28;20427;-77
2024/03/12 06:59:36;;;;;;;;;;;8.40;1.00;;;;;;5049995;28;19924;-78
2024/03/12 07:02:06;;;;;;;;;;;8.50;1.00;;;;;;5040686;28;19909;-75
2024/03/12 07:04:48;;;;;;;;;;;8.50;1.00;;;;;;5032594;28;19913;-75
2024/03/12 07:07:19;;;;;;;;;;;8.70;1.00;;;;;;5054572;28;20376;-76
2024/03/12 07:09:49;;;;;;;;;;;8.70;1.00;;;;;;5057122;28;19921;-76
2024/03/12 07:12:25;;;;;;;;;;;8.90;1.00;;;;;;5057976;28;19944;-76
2024/03/12 07:14:56;;;;;;;;;;;8.90;1.00;;;;;;5025225;28;19920;-79
2024/03/12 07:17:22;;;;;;;;;;;9.10;1.00;;;;;;5054658;28;20362;-76
2024/03/12 07:19:49;;;;;;;;;;;8.80;1.00;;;;;;5057366;28;19917;-75
2024/03/12 07:22:18;;;;;;;;;;;8.90;1.00;;;;;;5054382;28;19920;-76
2024/03/12 07:24:48;;;;;;;;;;;9.00;1.00;;;;;;5057533;28;19936;-76
2024/03/12 07:27:14;;;;;;;;;;;9.00;1.00;;;;;;5050134;28;19915;-76
2024/03/12 07:29:43;;;;;;;;;;;9.00;1.00;;;;;;5056003;28;20011;-75
2024/03/12 07:32:08;;;;;;;;;;;9.20;1.00;;;;;;5037500;28;19932;-78
2024/03/12 07:37:39;;;;;;;;;;;9.60;1.00;;;;;;5055158;28;19983;-78
2024/03/12 07:43:30;;;;;;;;;;;9.70;1.00;;;;;;5056714;28;19959;-77
2024/03/12 07:46:07;;;;;;;;;;;9.70;1.00;;;;;;5050501;28;19908;-76
2024/03/12 07:48:33;;;;;;;;;;;9.70;1.00;;;;;;5049625;28;19931;-75
2024/03/12 07:54:06;;;;;;;;;;;9.50;1.00;;;;;;5055930;28;20390;-75
2024/03/12 07:56:42;;;;;;;;;;;9.40;1.00;;;;;;5056327;28;20272;-76
2024/03/12 07:59:08;;;;;;;;;;;9.40;1.00;;;;;;5039787;28;19967;-75
2024/03/12 08:01:44;;;;;;;;;;;9.40;1.00;;;;;;5056269;28;19959;-77
2024/03/12 08:04:36;;;;;;;;;;;9.40;1.00;;;;;;5055851;28;19909;-77
2024/03/12 08:10:05;;;;;;;;;;;9.40;1.00;;;;;;5044745;28;19970;-77
2024/03/12 08:12:39;;;;;;;;;;;9.60;1.00;;;;;;5056036;28;19919;-77
2024/03/12 08:15:06;;;;;;;;;;;9.70;1.00;;;;;;5055468;28;19913;-77
2024/03/12 08:17:37;;;;;;;;;;;9.80;1.00;;;;;;5055515;28;19952;-75
2024/03/12 08:20:05;;;;;;;;;;;9.90;1.00;;;;;;5054038;28;20640;-76
2024/03/12 08:22:36;;;;;;;;;;;9.90;1.00;;;;;;5052912;28;20367;-76
2024/03/12 08:25:12;;;;;;;;;;;10.00;1.00;;;;;;5047335;28;19995;-76
2024/03/12 08:27:41;;;;;;;;;;;10.10;1.00;;;;;;5048161;28;19909;-75
2024/03/12 08:30:09;;;;;;;;;;;10.20;1.00;;;;;;5055119;28;19991;-76
2024/03/12 08:32:42;;;;;;;;;;;10.30;1.00;;;;;;5054735;28;19913;-77
2024/03/12 08:35:09;;;;;;;;;;;10.20;1.00;;;;;;5055444;28;19944;-77
2024/03/12 08:37:48;;;;;;;;;;;10.20;1.00;;;;;;5055023;28;20380;-77
2024/03/12 08:43:16;;;;;;;;;;;10.50;1.00;;;;;;5053609;28;19920;-77
2024/03/12 08:45:48;;;;;;;;;;;10.60;1.00;;;;;;5055352;28;19908;-78
2024/03/12 08:48:42;;;;;;;;;;;10.70;1.00;;;;;;5060055;28;19909;-78
2024/03/12 08:51:18;;;;;;;;;;;10.90;1.00;;;;;;5033641;28;19913;-78
2024/03/12 08:53:48;;;;;;;;;;;10.90;1.00;;;;;;5054427;28;19916;-78
2024/03/12 08:56:36;;;;;;;;;;;10.80;1.00;;;;;;5055178;28;20007;-78
2024/03/12 08:59:07;;;;;;;;;;;11.30;1.00;;;;;;5054327;28;19971;-77
2024/03/12 09:01:51;;;;;;;;;;;11.40;1.00;;;;;;5046942;28;19913;-77
2024/03/12 09:04:31;;;;;;;;;;;11.50;1.00;;;;;;5040291;28;20323;-78
2024/03/12 09:07:00;;;;;;;;;;;11.20;1.00;;;;;;5054023;28;19920;-77
2024/03/12 09:09:26;;;;;;;;;;;11.20;1.00;;;;;;5054656;28;19964;-77
2024/03/12 09:11:55;;;;;;;;;;;11.20;1.00;;;;;;5054666;28;20368;-77
2024/03/12 09:14:30;;;;;;;;;;;11.30;1.00;;;;;;5054844;28;20264;-77
2024/03/12 09:17:12;;;;;;;;;;;11.30;1.00;;;;;;5052918;28;19913;-78
2024/03/12 09:20:00;;;;;;;;;;;11.20;1.00;;;;;;5049137;28;19970;-77
2024/03/12 09:22:30;;;;;;;;;;;11.10;1.00;;;;;;5053814;28;19921;-77
2024/03/12 09:27:59;;;;;;;;;;;11.10;1.00;;;;;;5053217;28;19932;-77
2024/03/12 09:30:36;;;;;;;;;;;11.10;1.00;;;;;;5036468;28;20354;-77
2024/03/12 09:33:06;;;;;;;;;;;11.10;1.00;;;;;;5053738;28;19913;-77
2024/03/12 09:35:49;;;;;;;;;;;11.20;1.00;;;;;;5054091;28;19920;-77
2024/03/12 09:38:43;;;;;;;;;;;11.00;1.00;;;;;;5054054;28;19912;-77
2024/03/12 09:41:13;;;;;;;;;;;11.00;1.00;;;;;;5043641;28;19917;-78
2024/03/12 09:43:39;;;;;;;;;;;11.00;1.00;;;;;;5050237;28;20436;-77
2024/03/12 09:46:19;;;;;;;;;;;11.00;1.00;;;;;;5054126;28;19913;-77
2024/03/12 09:48:44;;;;;;;;;;;10.70;1.00;;;;;;5036528;28;20275;-77
2024/03/12 09:51:12;;;;;;;;;;;10.80;1.00;;;;;;5053824;28;19916;-77
2024/03/12 09:56:42;;;;;;;;;;;10.70;1.00;;;;;;5051329;28;20401;-78
2024/03/12 10:02:11;;;;;;;;;;;10.90;1.00;;;;;;5053413;28;19923;-75
2024/03/12 10:04:39;;;;;;;;;;;10.90;1.00;;;;;;5054294;28;20006;-76
2024/03/12 10:07:12;;;;;;;;;;;11.10;1.00;;;;;;5052350;28;20407;-76
2024/03/12 10:09:42;;;;;;;;;;;11.10;1.00;;;;;;5054269;28;19916;-76
2024/03/12 10:12:11;;;;;;;;;;;11.20;1.00;;;;;;5053398;28;20307;-75
2024/03/12 10:14:43;;;;;;;;;;;11.10;1.00;;;;;;5053879;28;19916;-75
2024/03/12 10:17:24;;;;;;;;;;;11.30;1.00;;;;;;5053732;28;19920;-77
2024/03/12 10:20:02;;;;;;;;;;;11.30;1.00;;;;;;5049041;28;19923;-77
2024/03/12 10:22:38;;;;;;;;;;;11.30;1.00;;;;;;5046694;28;19913;-77
2024/03/12 10:25:10;;;;;;;;;;;11.00;1.00;;;;;;5053546;28;19916;-77
2024/03/12 10:28:02;;;;;;;;;;;11.00;1.00;;;;;;5050245;28;19959;-77
2024/03/12 10:30:48;;;;;;;;;;;11.00;1.00;;;;;;5047020;28;20371;-77
2024/03/12 10:33:30;;;;;;;;;;;11.00;1.00;;;;;;5040921;28;19963;-77
2024/03/12 10:35:57;;;;;;;;;;;11.30;1.00;;;;;;5052560;28;19916;-77
2024/03/12 10:38:26;;;;;;;;;;;11.40;1.00;;;;;;5051981;28;19967;-77
2024/03/12 10:40:55;;;;;;;;;;;11.60;1.00;;;;;;5036050;28;19923;-77
2024/03/12 10:46:24;;;;;;;;;;;11.70;1.00;;;;;;5053321;28;19955;-78
2024/03/12 10:48:55;;;;;;;;;;;11.70;1.00;;;;;;5054197;28;19909;-76
2024/03/12 10:51:30;;;;;;;;;;;11.60;1.00;;;;;;5053138;28;19935;-76
2024/03/12 10:54:07;;;;;;;;;;;11.90;1.00;;;;;;5054150;28;20003;-76
2024/03/12 10:56:48;;;;;;;;;;;11.70;1.00;;;;;;5053811;28;20008;-75
2024/03/12 10:59:31;;;;;;;;;;;11.70;1.00;;;;;;5053984;28;20357;-75
2024/03/12 11:01:58;;;;;;;;;;;11.70;1.00;;;;;;5053412;28;19952;-76
2024/03/12 11:04:24;;;;;;;;;;;11.70;1.00;;;;;;5041713;28;19909;-75
2024/03/12 11:06:54;;;;;;;;;;;11.70;1.00;;;;;;5045888;28;19920;-76
2024/03/12 11:09:21;;;;;;;;;;;11.80;1.00;;;;;;5046036;28;19979;-75
2024/03/12 11:11:49;;;;;;;;;;;11.50;1.00;;;;;;5046291;28;19916;-75
2024/03/12 11:14:24;;;;;;;;;;;11.50;1.00;;;;;;5053213;28;19909;-75
2024/03/12 11:16:54;;;;;;;;;;;11.70;1.00;;;;;;5053255;28;19912;-75
2024/03/12 11:19:22;;;;;;;;;;;11.80;1.00;;;;;;5045159;28;19917;-75
2024/03/12 11:21:49;;;;;;;;;;;11.90;1.00;;;;;;5044491;28;20000;-76
2024/03/12 11:24:25;;;;;;;;;;;11.90;1.00;;;;;;5052012;28;19948;-75
2024/03/12 11:26:54;;;;;;;;;;;12.00;1.00;;;;;;5053496;28;19959;-75
2024/03/12 11:29:44;;;;;;;;;;;12.20;1.00;;;;;;5052688;28;19913;-75
2024/03/12 11:32:18;;;;;;;;;;;12.20;1.00;;;;;;5002811;28;19978;-76
2024/03/12 11:34:44;;;;;;;;;;;12.30;1.00;;;;;;5008667;28;19921;-75
2024/03/12 11:37:19;;;;;;;;;;;12.30;1.00;;;;;;5008346;28;19967;-75
2024/03/12 11:39:44;;;;;;;;;;;12.40;1.00;;;;;;4991427;28;20451;-75
2024/03/12 11:42:18;;;;;;;;;;;12.70;1.00;;;;;;4995265;28;19909;-76
2024/03/12 11:44:49;;;;;;;;;;;12.80;1.00;;;;;;5006638;28;19941;-75
2024/03/12 11:47:28;;;;;;;;;;;12.80;1.00;;;;;;5001574;28;20361;-76
2024/03/12 11:49:54;;;;;;;;;;;12.80;1.00;;;;;;5012190;28;19910;-75
2024/03/12 11:52:27;;;;;;;;;;;12.70;1.00;;;;;;5000314;28;19914;-76
2024/03/12 11:54:54;;;;;;;;;;;12.70;1.00;;;;;;5013502;28;19917;-75
2024/03/12 11:57:25;;;;;;;;;;;12.70;1.00;;;;;;5007209;28;20259;-76
2024/03/12 11:59:51;;;;;;;;;;;12.90;1.00;;;;;;5015058;28;19923;-76
2024/03/12 12:02:20;;;;;;;;;;;13.00;1.00;;;;;;5014945;28;19996;-75
2024/03/12 12:04:55;;;;;;;;;;;12.90;1.00;;;;;;5015571;28;20362;-76
2024/03/12 12:07:28;;;;;;;;;;;12.80;1.00;;;;;;5010157;28;19917;-76
2024/03/12 12:09:53;;;;;;;;;;;13.10;1.00;;;;;;5044047;28;19916;-76
2024/03/12 12:12:20;;;;;;;;;;;13.10;1.00;;;;;;5039013;28;19909;-76
2024/03/12 12:14:49;;;;;;;;;;;13.20;1.00;;;;;;5056693;28;20366;-76
2024/03/12 12:17:22;;;;;;;;;;;13.30;1.00;;;;;;5055867;28;20011;-75
2024/03/12 12:20:15;;;;;;;;;;;13.30;1.00;;;;;;5036900;28;19920;-76
2024/03/12 12:22:45;;;;;;;;;;;12.80;1.00;;;;;;5056531;28;19947;-76
2024/03/12 12:25:12;;;;;;;;;;;12.80;1.00;;;;;;5056753;28;19966;-76
2024/03/12 12:27:38;;;;;;;;;;;13.20;1.00;;;;;;5055752;28;19913;-76
2024/03/12 12:30:14;;;;;;;;;;;13.30;1.00;;;;;;5038382;28;19916;-76
2024/03/12 12:32:43;;;;;;;;;;;13.20;1.00;;;;;;5056298;28;19909;-77
2024/03/12 12:38:16;;;;;;;;;;;13.40;1.00;;;;;;5055100;28;19919;-77
2024/03/12 12:40:44;;;;;;;;;;;13.30;1.00;;;;;;5048666;28;19939;-77
2024/03/12 12:43:32;;;;;;;;;;;13.10;1.00;;;;;;5055929;28;19979;-76
2024/03/12 12:46:30;;;;;;;;;;;13.10;1.00;;;;;;5038086;28;19935;-86
2024/03/12 12:52:00;;;;;;;;;;;12.90;1.00;;;;;;5040877;28;20315;-77
2024/03/12 12:54:54;;;;;;;;;;;12.80;1.00;;;;;;5050368;28;19908;-82
2024/03/12 12:57:42;;;;;;;;;;;12.90;1.00;;;;;;5055112;28;19913;-80
2024/03/12 13:00:35;;;;;;;;;;;13.10;1.00;;;;;;5055626;28;19913;-79
2024/03/12 13:03:16;;;;;;;;;;;12.80;1.00;;;;;;5055391;28;19919;-78
2024/03/12 13:05:44;;;;;;;;;;;12.90;1.00;;;;;;5055485;28;19913;-76
2024/03/12 13:08:31;;;;;;;;;;;13.00;1.00;;;;;;5054902;28;19916;-76
2024/03/12 13:11:04;;;;;;;;;;;12.90;1.00;;;;;;5055513;28;19944;-76
2024/03/12 13:13:48;;;;;;;;;;;12.80;1.00;;;;;;5055771;28;19909;-76
2024/03/12 13:16:18;;;;;;;;;;;12.80;1.00;;;;;;5042852;28;20309;-76
2024/03/12 13:18:58;;;;;;;;;;;12.80;1.00;;;;;;5036490;28;19917;-76
2024/03/12 13:21:27;;;;;;;;;;;12.90;1.00;;;;;;5055719;28;19932;-76
2024/03/12 13:24:03;;;;;;;;;;;12.90;1.00;;;;;;5054930;28;19913;-76
2024/03/12 13:26:37;;;;;;;;;;;13.00;1.00;;;;;;5054801;28;19989;-76
2024/03/12 13:29:04;;;;;;;;;;;13.10;1.00;;;;;;5054013;28;19973;-77
2024/03/12 13:31:36;;;;;;;;;;;13.10;1.00;;;;;;5037168;28;20258;-76
2024/03/12 13:34:18;;;;;;;;;;;13.10;1.00;;;;;;5054928;28;19912;-76
2024/03/12 13:36:54;;;;;;;;;;;12.80;1.00;;;;;;5055071;28;19912;-76
2024/03/12 13:39:20;;;;;;;;;;;12.70;1.00;;;;;;5053796;28;20011;-76
2024/03/12 13:41:45;;;;;;;;;;;12.70;1.00;;;;;;5039846;28;19956;-76
2024/03/12 13:44:11;;;;;;;;;;;12.70;1.00;;;;;;5038137;28;19917;-76
2024/03/12 13:46:54;;;;;;;;;;;12.70;1.00;;;;;;5049626;28;20003;-76
2024/03/12 13:49:25;;;;;;;;;;;12.50;1.00;;;;;;5049190;28;19966;-87
2024/03/12 13:51:51;;;;;;;;;;;12.30;1.00;;;;;;5053396;28;19917;-77
2024/03/12 13:54:18;;;;;;;;;;;11.70;1.00;;;;;;5036832;28;19909;-77
2024/03/12 13:56:48;;;;;;;;;;;11.60;1.00;;;;;;5054562;28;19908;-76
2024/03/12 13:59:17;;;;;;;;;;;11.20;1.00;;;;;;5053872;28;19927;-76
2024/03/12 14:01:43;;;;;;;;;;;11.10;1.00;;;;;;5054427;28;20283;-77
2024/03/12 14:07:14;;;;;;;;;;;11.10;1.00;;;;;;5053472;28;19951;-77
2024/03/12 14:09:56;;;;;;;;;;;11.10;1.00;;;;;;5053765;28;20281;-77
2024/03/12 14:12:22;;;;;;;;;;;11.20;1.00;;;;;;5054551;28;19969;-76
2024/03/12 14:15:06;;;;;;;;;;;11.10;1.00;;;;;;5054122;28;19987;-76
2024/03/12 14:17:48;;;;;;;;;;;11.80;1.00;;;;;;5053082;28;20003;-77
2024/03/12 14:20:14;;;;;;;;;;;12.00;1.00;;;;;;5044902;28;19917;-77
2024/03/12 14:22:48;;;;;;;;;;;12.10;1.00;;;;;;5053891;28;20430;-77
2024/03/12 14:25:15;;;;;;;;;;;12.30;1.00;;;;;;5053433;28;19920;-77
2024/03/12 14:27:48;;;;;;;;;;;12.60;1.00;;;;;;5036070;28;20007;-77
2024/03/12 14:30:18;;;;;;;;;;;12.70;1.00;;;;;;5054390;28;19909;-76
2024/03/12 14:32:56;;;;;;;;;;;12.60;1.00;;;;;;5023050;28;19965;-77
2024/03/12 14:35:22;;;;;;;;;;;12.80;1.00;;;;;;5053250;28;19952;-78
2024/03/12 14:37:47;;;;;;;;;;;12.70;1.00;;;;;;5045083;28;19920;-78
2024/03/12 14:40:13;;;;;;;;;;;13.00;1.00;;;;;;5053618;28;20319;-77
2024/03/12 14:42:43;;;;;;;;;;;13.30;1.00;;;;;;5053877;28;19913;-78
2024/03/12 14:45:30;;;;;;;;;;;13.20;1.00;;;;;;5052945;28;19958;-78
2024/03/12 14:47:56;;;;;;;;;;;13.50;1.00;;;;;;5045662;28;20562;-78
2024/03/12 14:50:24;;;;;;;;;;;13.50;1.00;;;;;;5054172;28;19940;-76
2024/03/12 14:52:50;;;;;;;;;;;13.60;1.00;;;;;;5053738;28;19909;-77
2024/03/12 14:55:18;;;;;;;;;;;13.50;1.00;;;;;;5053222;28;19909;-77
2024/03/12 14:58:18;;;;;;;;;;;13.50;1.00;;;;;;5053755;28;19920;-77
2024/03/12 15:00:54;;;;;;;;;;;13.30;1.00;;;;;;5053684;28;19971;-77
2024/03/12 15:03:20;;;;;;;;;;;13.10;1.00;;;;;;5053993;28;19995;-77
2024/03/12 15:05:48;;;;;;;;;;;12.90;1.00;;;;;;5053860;28;19948;-78
2024/03/12 15:08:18;;;;;;;;;;;12.50;1.00;;;;;;5043199;28;19913;-78
2024/03/12 15:11:02;;;;;;;;;;;12.50;1.00;;;;;;5053538;28;19980;-79
2024/03/12 15:13:43;;;;;;;;;;;12.30;1.00;;;;;;5046721;28;19913;-78
2024/03/12 15:16:09;;;;;;;;;;;12.30;1.00;;;;;;5049870;28;19913;-79
2024/03/12 15:18:42;;;;;;;;;;;12.20;1.00;;;;;;5035020;28;19924;-80
2024/03/12 15:21:24;;;;;;;;;;;12.10;1.00;;;;;;5045046;28;19920;-79
2024/03/12 15:24:00;;;;;;;;;;;12.20;1.00;;;;;;5053683;28;19909;-79
2024/03/12 15:26:26;;;;;;;;;;;12.20;1.00;;;;;;5050858;28;19940;-78
2024/03/12 15:28:54;;;;;;;;;;;12.20;1.00;;;;;;5054397;28;19959;-77
2024/03/12 15:31:20;;;;;;;;;;;12.40;1.00;;;;;;5057179;28;19915;-79
2024/03/12 15:33:51;;;;;;;;;;;12.50;1.00;;;;;;5055622;28;19909;-79
2024/03/12 15:36:16;;;;;;;;;;;12.70;1.00;;;;;;5053983;28;19935;-75
2024/03/12 15:39:06;;;;;;;;;;;13.10;1.00;;;;;;5055772;28;19916;-77
2024/03/12 15:41:36;;;;;;;;;;;13.20;1.00;;;;;;5056411;28;20011;-77
2024/03/12 15:44:18;;;;;;;;;;;13.20;1.00;;;;;;5037745;28;19967;-78
2024/03/12 15:47:06;;;;;;;;;;;13.40;1.00;;;;;;5051744;28;19913;-78
2024/03/12 15:49:32;;;;;;;;;;;13.10;1.00;;;;;;5057048;28;19916;-78
2024/03/12 15:51:58;;;;;;;;;;;12.90;1.00;;;;;;5055401;28;19913;-77
2024/03/12 15:54:25;;;;;;;;;;;12.80;1.00;;;;;;5055653;28;19948;-77
2024/03/12 15:57:00;;;;;;;;;;;12.40;1.00;;;;;;5037923;28;21529;-77
2024/03/12 15:59:26;;;;;;;;;;;12.40;1.00;;;;;;5056118;28;19920;-76
2024/03/12 16:01:54;;;;;;;;;;;11.70;1.00;;;;;;5051282;28;19936;-76
2024/03/12 16:04:20;;;;;;;;;;;11.70;1.00;;;;;;5056662;28;19909;-76
2024/03/12 16:07:18;;;;;;;;;;;11.60;1.00;;;;;;5056215;28;19913;-77
2024/03/12 16:09:44;;;;;;;;;;;11.20;1.00;;;;;;5053592;28;20416;-78
2024/03/12 16:12:13;;;;;;;;;;;11.10;1.00;;;;;;5051932;28;19993;-79
2024/03/12 16:14:39;;;;;;;;;;;10.90;1.00;;;;;;5053233;28;20390;-78
2024/03/12 16:17:06;;;;;;;;;;;10.90;1.00;;;;;;5046767;28;19917;-77
2024/03/12 16:19:32;;;;;;;;;;;10.80;1.00;;;;;;5053306;28;20394;-78
2024/03/12 16:22:07;;;;;;;;;;;10.80;1.00;;;;;;5057053;28;19913;-78
2024/03/12 16:24:33;;;;;;;;;;;10.70;1.00;;;;;;5056004;28;19919;-78
2024/03/12 16:27:07;;;;;;;;;;;10.70;1.00;;;;;;5054665;28;19912;-79
2024/03/12 16:29:42;;;;;;;;;;;10.70;1.00;;;;;;5053382;28;20324;-78
2024/03/12 16:32:43;;;;;;;;;;;10.70;1.00;;;;;;5038134;28;19954;-79
2024/03/12 16:35:08;;;;;;;;;;;10.70;1.00;;;;;;5049498;28;19916;-78